createdAt,value
2023-04-26T00:01:11.568Z,5.70
2023-04-26T00:03:41.184Z,6.40
2023-04-26T00:06:10.352Z,7.50
2023-04-26T00:08:38.247Z,7.18
2023-04-26T00:11:06.615Z,7.45
2023-04-26T00:13:34.606Z,7.45
2023-04-26T00:16:02.592Z,6.75
2023-04-26T00:18:31.973Z,7.65
2023-04-26T00:20:59.936Z,7.50
2023-04-26T00:23:27.977Z,7.97
2023-04-26T00:25:57.690Z,7.75
2023-04-26T00:28:25.782Z,9.02
2023-04-26T00:30:54.017Z,9.13
2023-04-26T00:33:22.477Z,9.73
2023-04-26T00:35:50.866Z,9.48
2023-04-26T00:38:19.069Z,10.52
2023-04-26T00:40:47.674Z,12.65
2023-04-26T00:43:16.440Z,13.85
2023-04-26T00:45:44.475Z,13.00
2023-04-26T00:48:13.453Z,14.63
2023-04-26T00:50:42.036Z,12.88
2023-04-26T00:53:11.384Z,15.43
2023-04-26T00:55:52.788Z,14.10
2023-04-26T00:58:23.978Z,15.63
2023-04-26T01:01:17.623Z,14.02
2023-04-26T01:03:58.055Z,12.77
2023-04-26T01:06:33.467Z,14.45
2023-04-26T01:09:16.236Z,14.10
2023-04-26T01:14:15.152Z,12.68
2023-04-26T01:16:47.742Z,11.48
2023-04-26T01:21:46.185Z,12.30
2023-04-26T01:24:15.118Z,10.65
2023-04-26T01:26:56.545Z,10.77
2023-04-26T01:29:24.656Z,11.18
2023-04-26T01:32:06.057Z,11.30
2023-04-26T01:34:34.895Z,10.45
2023-04-26T01:37:02.910Z,11.48
2023-04-26T01:39:31.354Z,13.45
2023-04-26T01:42:11.350Z,13.35
2023-04-26T01:44:39.969Z,11.85
2023-04-26T01:47:08.042Z,12.82
2023-04-26T01:49:36.398Z,12.05
2023-04-26T01:52:04.921Z,11.18
2023-04-26T01:54:33.111Z,11.05
2023-04-26T01:57:02.897Z,9.43
2023-04-26T01:59:31.266Z,9.63
2023-04-26T02:02:00.635Z,8.75
2023-04-26T02:04:29.040Z,8.25
2023-04-26T02:06:57.602Z,7.85
2023-04-26T02:09:25.642Z,7.30
2023-04-26T02:11:54.151Z,7.10
2023-04-26T02:14:22.386Z,6.25
2023-04-26T02:16:52.213Z,6.00
2023-04-26T02:19:21.218Z,6.35
2023-04-26T02:21:58.290Z,5.93
2023-04-26T02:24:26.686Z,5.25
2023-04-26T02:26:55.082Z,5.25
2023-04-26T02:29:36.374Z,5.78
2023-04-26T02:32:12.484Z,4.95
2023-04-26T02:34:41.103Z,5.00
2023-04-26T02:37:09.298Z,4.57
2023-04-26T02:39:37.221Z,4.15
2023-04-26T02:42:11.003Z,4.12
2023-04-26T02:44:40.080Z,5.00
2023-04-26T02:47:08.945Z,4.00
2023-04-26T02:49:36.879Z,5.65
2023-04-26T02:52:05.391Z,5.15
2023-04-26T02:54:34.033Z,5.15
2023-04-26T02:57:02.107Z,5.22
2023-04-26T02:59:30.388Z,4.53
2023-04-26T03:01:58.934Z,5.05
2023-04-26T03:04:27.081Z,4.70
2023-04-26T03:06:55.223Z,3.95
2023-04-26T03:09:23.611Z,4.60
2023-04-26T03:11:52.673Z,4.80
2023-04-26T03:14:23.067Z,4.12
2023-04-26T03:16:51.620Z,4.75
2023-04-26T03:19:19.808Z,4.70
2023-04-26T03:21:48.189Z,4.50
2023-04-26T03:24:16.658Z,4.55
2023-04-26T03:26:44.702Z,4.22
2023-04-26T03:29:12.871Z,5.37
2023-04-26T03:31:41.308Z,4.60
2023-04-26T03:34:09.732Z,4.85
2023-04-26T03:36:37.755Z,3.65
2023-04-26T03:39:06.716Z,3.67
2023-04-26T03:41:37.124Z,3.97
2023-04-26T03:44:05.640Z,3.65
2023-04-26T03:46:33.916Z,3.08
2023-04-26T03:49:02.078Z,3.55
2023-04-26T03:51:30.349Z,3.10
2023-04-26T03:53:59.855Z,3.72
2023-04-26T03:56:27.805Z,3.42
2023-04-26T03:58:56.110Z,3.65
2023-04-26T04:01:26.237Z,3.37
2023-04-26T04:03:55.412Z,3.30
2023-04-26T04:06:23.727Z,3.45
2023-04-26T04:08:52.238Z,3.65
2023-04-26T04:11:22.033Z,3.20
2023-04-26T04:13:49.903Z,2.90
2023-04-26T04:16:17.815Z,3.17
2023-04-26T04:18:46.858Z,2.95
2023-04-26T04:21:15.018Z,2.85
2023-04-26T04:23:44.593Z,2.60
2023-04-26T04:26:13.104Z,2.70
2023-04-26T04:28:45.412Z,2.72
2023-04-26T04:31:14.221Z,2.42
2023-04-26T04:33:42.668Z,2.92
2023-04-26T04:36:13.843Z,2.40
2023-04-26T04:38:42.127Z,4.03
2023-04-26T04:41:10.759Z,2.60
2023-04-26T04:43:39.468Z,2.70
2023-04-26T04:46:09.194Z,2.80
2023-04-26T04:48:39.192Z,3.28
2023-04-26T04:51:08.339Z,3.12
2023-04-26T04:53:36.967Z,2.85
2023-04-26T04:56:05.528Z,2.67
2023-04-26T04:58:34.504Z,3.30
2023-04-26T05:01:03.136Z,2.78
2023-04-26T05:03:34.173Z,2.80
2023-04-26T05:06:03.808Z,2.60
2023-04-26T05:08:31.925Z,3.30
2023-04-26T05:11:01.013Z,3.35
2023-04-26T05:13:29.334Z,3.10
2023-04-26T05:15:57.388Z,3.70
2023-04-26T05:18:25.357Z,3.28
2023-04-26T05:20:54.418Z,2.92
2023-04-26T05:23:22.605Z,2.67
2023-04-26T05:25:51.429Z,2.60
2023-04-26T05:28:20.952Z,3.00
2023-04-26T05:30:50.292Z,2.95
2023-04-26T05:33:18.948Z,3.03
2023-04-26T05:35:47.589Z,3.15
2023-04-26T05:38:16.052Z,3.12
2023-04-26T05:40:44.014Z,2.72
2023-04-26T05:43:12.428Z,3.12
2023-04-26T05:45:40.561Z,3.00
2023-04-26T05:48:08.694Z,3.35
2023-04-26T05:50:38.915Z,3.00
2023-04-26T05:53:08.328Z,2.70
2023-04-26T05:55:37.595Z,2.40
2023-04-26T05:58:05.930Z,2.10
2023-04-26T06:00:34.349Z,2.10
2023-04-26T06:03:14.778Z,1.77
2023-04-26T06:05:43.570Z,1.87
2023-04-26T06:08:12.187Z,1.90
2023-04-26T06:10:40.476Z,2.03
2023-04-26T06:13:08.689Z,2.50
2023-04-26T06:15:37.074Z,2.33
2023-04-26T06:18:07.458Z,2.10
2023-04-26T06:20:36.339Z,1.80
2023-04-26T06:23:07.297Z,1.90
2023-04-26T06:25:37.404Z,2.05
2023-04-26T06:31:36.036Z,1.77
2023-04-26T06:34:05.280Z,1.85
2023-04-26T06:36:33.278Z,2.15
2023-04-26T06:39:01.751Z,2.05
2023-04-26T06:41:30.287Z,2.10
2023-04-26T06:43:58.090Z,1.70
2023-04-26T06:46:30.620Z,2.00
2023-04-26T06:48:58.841Z,2.15
2023-04-26T06:51:27.298Z,1.80
2023-04-26T06:53:55.417Z,1.80
2023-04-26T06:56:24.099Z,2.00
2023-04-26T06:59:06.971Z,2.20
2023-04-26T07:04:05.256Z,1.70
2023-04-26T07:06:33.221Z,1.40
2023-04-26T07:09:03.305Z,1.42
2023-04-26T07:11:32.382Z,1.30
2023-04-26T07:14:00.493Z,1.35
2023-04-26T07:16:29.083Z,1.10
2023-04-26T07:18:59.814Z,1.58
2023-04-26T07:21:28.199Z,1.30
2023-04-26T07:26:42.724Z,1.23
2023-04-26T07:29:10.881Z,1.50
2023-04-26T07:31:38.762Z,1.33
2023-04-26T07:34:06.990Z,1.20
2023-04-26T07:36:34.916Z,1.60
2023-04-26T07:39:05.372Z,1.73
2023-04-26T07:41:33.571Z,1.27
2023-04-26T07:44:01.593Z,1.37
2023-04-26T07:46:29.994Z,1.17
2023-04-26T07:48:58.387Z,1.37
2023-04-26T07:51:27.763Z,1.42
2023-04-26T07:53:58.272Z,1.92
2023-04-26T07:56:26.574Z,1.65
2023-04-26T07:58:54.465Z,1.42
2023-04-26T08:01:22.600Z,1.10
2023-04-26T08:03:51.371Z,1.15
2023-04-26T08:06:19.687Z,1.25
2023-04-26T08:08:51.537Z,1.40
2023-04-26T08:11:19.976Z,1.50
2023-04-26T08:13:48.410Z,2.22
2023-04-26T08:16:16.439Z,2.55
2023-04-26T08:18:46.782Z,2.47
2023-04-26T08:21:16.066Z,2.80
2023-04-26T08:23:44.805Z,2.70
2023-04-26T08:26:12.750Z,3.17
2023-04-26T08:28:41.424Z,3.33
2023-04-26T08:31:10.498Z,2.53
2023-04-26T08:33:38.615Z,1.90
2023-04-26T08:36:06.929Z,2.37
2023-04-26T08:38:35.824Z,2.72
2023-04-26T08:41:05.788Z,4.07
2023-04-26T08:43:38.127Z,4.10
2023-04-26T08:46:10.983Z,5.00
2023-04-26T08:48:39.210Z,4.53
2023-04-26T08:51:12.873Z,4.47
2023-04-26T08:53:42.088Z,4.22
2023-04-26T08:56:12.851Z,2.50
2023-04-26T08:58:41.044Z,3.17
2023-04-26T09:01:10.793Z,5.55
2023-04-26T09:03:39.386Z,4.40
2023-04-26T09:06:08.159Z,5.18
2023-04-26T09:08:41.810Z,3.58
2023-04-26T09:11:10.097Z,4.15
2023-04-26T09:13:38.053Z,4.68
2023-04-26T09:16:06.421Z,3.80
2023-04-26T09:18:35.039Z,5.10
2023-04-26T09:21:08.476Z,4.97
2023-04-26T09:23:37.025Z,5.37
2023-04-26T09:26:21.906Z,6.12
2023-04-26T09:28:51.061Z,7.32
2023-04-26T09:31:39.230Z,6.30
2023-04-26T09:34:08.989Z,6.68
2023-04-26T09:36:57.408Z,4.78
2023-04-26T09:39:43.875Z,4.45
2023-04-26T09:42:11.950Z,6.72
2023-04-26T09:44:40.208Z,6.57
2023-04-26T09:47:10.590Z,5.82
2023-04-26T09:49:51.078Z,6.03
2023-04-26T09:52:20.230Z,6.43
2023-04-26T09:54:50.389Z,4.55
2023-04-26T09:57:20.125Z,4.20
2023-04-26T09:59:51.270Z,3.80
2023-04-26T10:02:25.128Z,3.90
2023-04-26T10:04:57.297Z,4.35
2023-04-26T10:07:26.822Z,6.15
2023-04-26T10:09:55.935Z,4.93
2023-04-26T10:12:24.173Z,4.68
2023-04-26T10:14:52.195Z,4.85
2023-04-26T10:17:23.450Z,4.10
2023-04-26T10:19:57.015Z,3.33
2023-04-26T10:22:29.759Z,3.97
2023-04-26T10:24:57.804Z,3.72
2023-04-26T10:27:44.852Z,3.90
2023-04-26T10:30:17.663Z,2.78
2023-04-26T10:32:55.433Z,2.72
2023-04-26T10:35:28.380Z,2.90
2023-04-26T10:38:03.085Z,2.75
2023-04-26T10:40:39.518Z,3.05
2023-04-26T10:43:16.660Z,3.75
2023-04-26T10:45:48.616Z,4.72
2023-04-26T10:48:33.012Z,2.85
2023-04-26T10:51:12.817Z,4.18
2023-04-26T10:53:47.323Z,3.85
2023-04-26T10:56:24.836Z,3.28
2023-04-26T10:59:33.403Z,3.62
2023-04-26T11:02:02.023Z,3.22
2023-04-26T11:04:55.312Z,3.47
2023-04-26T11:07:39.565Z,4.03
2023-04-26T11:10:10.990Z,3.20
2023-04-26T11:12:42.495Z,3.30
2023-04-26T11:15:13.258Z,3.92
2023-04-26T11:17:41.530Z,3.53
2023-04-26T11:20:18.092Z,4.20
2023-04-26T11:22:46.592Z,5.30
2023-04-26T11:25:15.160Z,5.07
2023-04-26T11:27:46.818Z,6.40
2023-04-26T11:30:20.537Z,6.50
2023-04-26T11:32:48.601Z,8.13
2023-04-26T11:35:16.925Z,6.45
2023-04-26T11:37:46.642Z,8.27
2023-04-26T11:40:17.325Z,9.07
2023-04-26T11:42:46.103Z,5.57
2023-04-26T11:45:16.857Z,5.50
2023-04-26T11:47:46.992Z,6.90
2023-04-26T11:50:15.190Z,4.45
2023-04-26T11:52:43.462Z,5.75
2023-04-26T11:55:12.002Z,6.55
2023-04-26T11:57:40.107Z,3.83
2023-04-26T12:00:15.221Z,4.72
2023-04-26T12:02:51.374Z,4.25
2023-04-26T12:05:33.702Z,2.70
2023-04-26T12:08:02.386Z,3.72
2023-04-26T12:10:37.134Z,2.40
2023-04-26T12:13:05.657Z,2.65
2023-04-26T12:15:35.121Z,2.33
2023-04-26T12:18:11.664Z,2.15
2023-04-26T12:20:43.753Z,2.55
2023-04-26T12:23:17.692Z,2.42
2023-04-26T12:25:57.232Z,1.87
2023-04-26T12:28:25.794Z,1.67
2023-04-26T12:30:54.269Z,1.48
2023-04-26T12:33:25.772Z,2.10
2023-04-26T12:35:54.388Z,2.20
2023-04-26T12:38:22.517Z,2.12
2023-04-26T12:40:50.645Z,2.28
2023-04-26T12:43:19.855Z,2.00
2023-04-26T12:45:48.534Z,2.10
2023-04-26T12:48:17.537Z,2.47
2023-04-26T12:50:46.640Z,1.92
2023-04-26T12:53:14.933Z,2.92
2023-04-26T12:55:43.054Z,2.22
2023-04-26T12:58:11.850Z,2.97
2023-04-26T13:00:40.174Z,2.30
2023-04-26T13:03:08.387Z,2.47
2023-04-26T13:05:37.038Z,2.33
2023-04-26T13:08:05.258Z,2.40
2023-04-26T13:10:33.408Z,2.67
2023-04-26T13:13:01.822Z,2.97
2023-04-26T13:15:30.280Z,2.33
2023-04-26T13:17:58.247Z,2.25
2023-04-26T13:20:28.924Z,2.90
2023-04-26T13:22:58.770Z,3.58
2023-04-26T13:25:27.459Z,2.62
2023-04-26T13:27:55.856Z,3.45
2023-04-26T13:30:23.667Z,2.08
2023-04-26T13:32:52.914Z,2.50
2023-04-26T13:35:21.569Z,2.62
2023-04-26T13:37:51.719Z,2.50
2023-04-26T13:40:21.847Z,2.47
2023-04-26T13:42:50.536Z,2.90
2023-04-26T13:45:19.414Z,2.10
2023-04-26T13:47:47.905Z,2.95
2023-04-26T13:50:16.552Z,2.80
2023-04-26T13:52:44.508Z,2.58
2023-04-26T13:55:13.016Z,1.98
2023-04-26T13:57:41.423Z,2.30
2023-04-26T14:00:14.684Z,2.30
2023-04-26T14:02:42.750Z,2.42
2023-04-26T14:05:11.509Z,2.72
2023-04-26T14:07:41.815Z,2.22
2023-04-26T14:10:10.500Z,2.75
2023-04-26T14:12:39.770Z,3.10
2023-04-26T14:15:08.362Z,3.30
2023-04-26T14:17:36.711Z,3.60
2023-04-26T14:20:06.007Z,2.60
2023-04-26T14:22:34.595Z,2.80
2023-04-26T14:25:02.690Z,3.00
2023-04-26T14:27:31.545Z,2.50
2023-04-26T14:29:59.608Z,2.25
2023-04-26T14:32:27.788Z,2.00
2023-04-26T14:34:56.072Z,2.30
2023-04-26T14:37:24.347Z,1.70
2023-04-26T14:39:52.332Z,2.12
2023-04-26T14:42:20.734Z,1.98
2023-04-26T14:44:48.887Z,1.90
2023-04-26T14:47:16.851Z,1.80
2023-04-26T14:49:45.369Z,1.20
2023-04-26T14:52:13.356Z,1.90
2023-04-26T14:54:41.966Z,1.67
2023-04-26T14:57:10.936Z,1.40
2023-04-26T14:59:39.069Z,2.03
2023-04-26T15:02:07.686Z,1.62
2023-04-26T15:04:38.260Z,1.95
2023-04-26T15:07:07.683Z,1.50
2023-04-26T15:09:38.113Z,1.60
2023-04-26T15:12:06.428Z,1.92
2023-04-26T15:14:34.422Z,1.70
2023-04-26T15:17:03.373Z,1.60
2023-04-26T15:19:31.328Z,2.87
2023-04-26T15:21:59.299Z,1.60
2023-04-26T15:24:27.719Z,2.20
2023-04-26T15:26:55.821Z,1.90
2023-04-26T15:29:24.896Z,1.77
2023-04-26T15:31:53.271Z,1.80
2023-04-26T15:34:23.026Z,2.10
2023-04-26T15:36:51.239Z,2.08
2023-04-26T15:39:19.971Z,1.87
2023-04-26T15:41:49.142Z,1.98
2023-04-26T15:44:19.142Z,1.80
2023-04-26T15:46:48.933Z,2.05
2023-04-26T15:49:24.660Z,1.98
2023-04-26T15:51:53.328Z,2.00
2023-04-26T15:54:22.094Z,2.10
2023-04-26T15:56:50.234Z,2.00
2023-04-26T15:59:18.959Z,1.90
2023-04-26T16:01:47.181Z,4.90
2023-04-26T16:04:15.740Z,5.72
2023-04-26T16:06:43.762Z,4.90
2023-04-26T16:09:24.686Z,4.00
2023-04-26T16:14:22.687Z,3.62
2023-04-26T16:16:50.812Z,3.08
2023-04-26T16:19:19.371Z,3.42
2023-04-26T16:21:47.432Z,3.10
2023-04-26T16:24:15.439Z,3.50
2023-04-26T16:26:43.825Z,3.55
2023-04-26T16:29:11.885Z,3.40
2023-04-26T16:31:40.644Z,4.43
2023-04-26T16:34:09.031Z,3.55
2023-04-26T16:36:36.872Z,3.37
2023-04-26T16:39:04.712Z,2.92
2023-04-26T16:41:32.956Z,3.67
2023-04-26T16:44:01.013Z,3.65
2023-04-26T16:46:29.196Z,3.50
2023-04-26T16:48:57.559Z,4.15
2023-04-26T16:51:25.465Z,5.60
2023-04-26T16:53:53.298Z,6.03
2023-04-26T16:56:21.604Z,4.80
2023-04-26T16:58:49.562Z,4.57
2023-04-26T17:01:17.505Z,5.15
2023-04-26T17:03:46.903Z,6.53
2023-04-26T17:06:15.145Z,5.97
2023-04-26T17:08:42.936Z,5.65
2023-04-26T17:11:15.400Z,4.90
2023-04-26T17:13:43.983Z,4.50
2023-04-26T17:16:12.520Z,4.87
2023-04-26T17:18:40.505Z,4.50
2023-04-26T17:21:08.354Z,5.35
2023-04-26T17:26:22.387Z,4.95
2023-04-26T17:28:51.571Z,5.72
2023-04-26T17:31:19.336Z,5.22
2023-04-26T17:33:47.464Z,5.47
2023-04-26T17:36:16.342Z,5.45
2023-04-26T17:38:44.437Z,5.45
2023-04-26T17:41:18.023Z,5.57
2023-04-26T17:43:46.442Z,6.50
2023-04-26T17:46:16.878Z,6.50
2023-04-26T17:48:44.745Z,6.65
2023-04-26T17:51:12.882Z,5.93
2023-04-26T17:53:40.836Z,6.22
2023-04-26T17:56:10.219Z,6.28
2023-04-26T17:58:38.466Z,6.70
2023-04-26T18:01:06.652Z,7.03
2023-04-26T18:03:36.089Z,6.87
2023-04-26T18:06:04.726Z,7.20
2023-04-26T18:08:32.567Z,6.57
2023-04-26T18:11:00.921Z,6.18
2023-04-26T18:13:28.876Z,6.87
2023-04-26T18:15:57.444Z,6.50
2023-04-26T18:18:27.782Z,6.37
2023-04-26T18:20:55.950Z,6.60
2023-04-26T18:26:09.989Z,6.28
2023-04-26T18:31:23.604Z,5.57
2023-04-26T18:33:51.538Z,5.97
2023-04-26T18:36:19.830Z,7.20
2023-04-26T18:38:48.134Z,5.50
2023-04-26T18:41:16.152Z,5.68
2023-04-26T18:43:44.062Z,6.85
2023-04-26T18:46:12.520Z,6.28
2023-04-26T18:48:40.561Z,6.95
2023-04-26T18:51:08.724Z,6.62
2023-04-26T18:53:37.028Z,6.95
2023-04-26T18:56:05.354Z,7.80
2023-04-26T18:58:33.406Z,7.43
2023-04-26T19:01:05.448Z,6.95
2023-04-26T19:03:35.146Z,6.28
2023-04-26T19:06:09.013Z,6.47
2023-04-26T19:08:37.548Z,6.65
2023-04-26T19:11:06.293Z,6.95
2023-04-26T19:13:34.983Z,7.82
2023-04-26T19:16:04.855Z,7.95
2023-04-26T19:18:33.786Z,8.77
2023-04-26T19:21:08.747Z,11.05
2023-04-26T19:23:37.480Z,10.57
2023-04-26T19:26:08.358Z,14.70
2023-04-26T19:28:38.285Z,11.90
2023-04-26T19:31:06.386Z,10.98
2023-04-26T19:33:34.626Z,10.70
2023-04-26T19:36:03.161Z,16.87
2023-04-26T19:38:31.299Z,12.95
2023-04-26T19:41:01.011Z,10.23
2023-04-26T19:43:29.597Z,8.70
2023-04-26T19:45:57.569Z,9.00
2023-04-26T19:48:26.720Z,8.05
2023-04-26T19:50:55.397Z,9.63
2023-04-26T19:53:23.615Z,8.85
2023-04-26T19:55:51.559Z,8.00
2023-04-26T19:58:20.185Z,7.18
2023-04-26T20:00:48.332Z,7.10
2023-04-26T20:03:17.019Z,7.40
2023-04-26T20:05:45.065Z,6.12
2023-04-26T20:08:13.182Z,6.40
2023-04-26T20:10:42.163Z,6.70
2023-04-26T20:13:10.303Z,7.05
2023-04-26T20:15:38.683Z,7.62
2023-04-26T20:18:07.659Z,7.55
2023-04-26T20:20:36.112Z,7.55
2023-04-26T20:23:04.054Z,8.98
2023-04-26T20:25:32.462Z,9.40
2023-04-26T20:28:02.520Z,10.63
2023-04-26T20:30:34.526Z,9.55
2023-04-26T20:33:03.301Z,8.60
2023-04-26T20:35:31.514Z,8.75
2023-04-26T20:37:59.555Z,8.73
2023-04-26T20:40:27.932Z,8.35
2023-04-26T20:42:55.837Z,8.68
2023-04-26T20:45:23.884Z,7.78
2023-04-26T20:47:52.370Z,8.35
2023-04-26T20:50:22.636Z,8.90
2023-04-26T20:52:50.934Z,8.55
2023-04-26T20:55:19.439Z,7.90
2023-04-26T20:57:48.105Z,8.32
2023-04-26T21:00:16.537Z,7.82
2023-04-26T21:02:44.992Z,8.93
2023-04-26T21:05:13.079Z,7.87
2023-04-26T21:07:41.242Z,7.57
2023-04-26T21:10:10.083Z,7.55
2023-04-26T21:12:38.582Z,7.62
2023-04-26T21:15:08.931Z,8.27
2023-04-26T21:17:37.492Z,8.40
2023-04-26T21:20:05.925Z,8.55
2023-04-26T21:22:34.122Z,9.55
2023-04-26T21:25:02.707Z,9.20
2023-04-26T21:27:32.326Z,8.90
2023-04-26T21:30:00.489Z,8.80
2023-04-26T21:32:31.683Z,9.00
2023-04-26T21:34:59.590Z,9.07
2023-04-26T21:37:29.440Z,8.98
2023-04-26T21:40:05.286Z,9.25
2023-04-26T21:42:33.670Z,8.65
2023-04-26T21:45:01.933Z,9.73
2023-04-26T21:47:31.740Z,9.50
2023-04-26T21:49:59.701Z,9.95
2023-04-26T21:52:28.030Z,10.40
2023-04-26T21:54:56.087Z,9.73
2023-04-26T21:57:24.511Z,10.35
2023-04-26T21:59:52.910Z,10.52
2023-04-26T22:02:21.059Z,9.23
2023-04-26T22:04:49.623Z,8.38
2023-04-26T22:07:17.705Z,9.50
2023-04-26T22:09:45.707Z,9.60
2023-04-26T22:12:14.146Z,9.27
2023-04-26T22:14:42.063Z,9.38
2023-04-26T22:17:10.101Z,9.50
2023-04-26T22:19:38.411Z,8.82
2023-04-26T22:22:06.466Z,9.80
2023-04-26T22:24:34.432Z,9.63
2023-04-26T22:27:04.067Z,9.10
2023-04-26T22:29:31.890Z,9.95
2023-04-26T22:31:59.937Z,9.18
2023-04-26T22:34:28.283Z,8.65
2023-04-26T22:37:01.198Z,9.07
2023-04-26T22:39:34.986Z,8.82
2023-04-26T22:42:03.236Z,8.63
2023-04-26T22:44:31.457Z,5.78
2023-04-26T22:46:59.878Z,7.55
2023-04-26T22:49:27.826Z,8.73
2023-04-26T22:52:07.889Z,8.88
2023-04-26T22:54:40.643Z,9.70
2023-04-26T22:57:08.622Z,9.73
2023-04-26T22:59:36.647Z,8.68
2023-04-26T23:02:04.877Z,8.95
2023-04-26T23:04:32.914Z,9.15
2023-04-26T23:07:01.152Z,9.02
2023-04-26T23:09:29.486Z,9.90
2023-04-26T23:11:59.662Z,10.48
2023-04-26T23:14:29.896Z,10.25
2023-04-26T23:17:01.328Z,11.00
2023-04-26T23:19:29.252Z,11.30
2023-04-26T23:21:57.261Z,10.52
2023-04-26T23:24:25.666Z,10.65
2023-04-26T23:26:53.505Z,9.45
2023-04-26T23:29:21.406Z,10.68
2023-04-26T23:31:49.936Z,6.45
2023-04-26T23:34:18.037Z,8.75
2023-04-26T23:36:46.205Z,8.25
2023-04-26T23:39:14.984Z,8.90
2023-04-26T23:41:43.206Z,6.68
2023-04-26T23:44:11.650Z,5.50
2023-04-26T23:46:40.116Z,8.23
2023-04-26T23:49:08.150Z,5.72
2023-04-26T23:51:36.454Z,5.60
2023-04-26T23:54:04.756Z,6.50
2023-04-26T23:56:32.961Z,8.40
2023-04-26T23:59:00.930Z,9.98
